createdAt,value
2023-01-23T00:01:37.208Z,5.49
2023-01-23T00:04:05.888Z,5.85
2023-01-23T00:06:34.031Z,5.57
2023-01-23T00:09:01.754Z,5.72
2023-01-23T00:11:31.048Z,5.71
2023-01-23T00:14:00.157Z,5.73
2023-01-23T00:16:30.001Z,5.72
2023-01-23T00:18:58.963Z,5.70
2023-01-23T00:21:28.856Z,5.58
2023-01-23T00:23:58.436Z,5.69
2023-01-23T00:26:28.810Z,5.61
2023-01-23T00:28:56.926Z,5.59
2023-01-23T00:31:27.471Z,5.50
2023-01-23T00:33:58.707Z,5.52
2023-01-23T00:36:32.814Z,5.40
2023-01-23T00:39:00.978Z,5.46
2023-01-23T00:41:28.805Z,5.41
2023-01-23T00:43:56.473Z,5.43
2023-01-23T00:46:24.885Z,5.50
2023-01-23T00:48:52.704Z,5.41
2023-01-23T00:51:20.486Z,5.35
2023-01-23T00:53:49.197Z,5.45
2023-01-23T00:56:16.971Z,5.41
2023-01-23T00:58:45.398Z,5.47
2023-01-23T01:01:15.447Z,5.33
2023-01-23T01:03:44.591Z,5.40
2023-01-23T01:06:12.897Z,5.41
2023-01-23T01:08:41.186Z,5.44
2023-01-23T01:11:08.879Z,5.36
2023-01-23T01:13:37.007Z,5.35
2023-01-23T01:16:05.487Z,5.23
2023-01-23T01:18:33.727Z,5.33
2023-01-23T01:21:01.444Z,5.23
2023-01-23T01:23:29.463Z,5.11
2023-01-23T01:26:01.216Z,5.31
2023-01-23T01:28:33.231Z,5.36
2023-01-23T01:31:08.753Z,5.37
2023-01-23T01:33:38.943Z,5.70
2023-01-23T01:36:11.466Z,5.61
2023-01-23T01:38:39.962Z,5.53
2023-01-23T01:41:09.242Z,5.77
2023-01-23T01:43:37.310Z,5.80
2023-01-23T01:46:14.412Z,5.57
2023-01-23T01:48:57.203Z,5.76
2023-01-23T01:51:31.199Z,5.56
2023-01-23T01:54:02.287Z,5.69
2023-01-23T01:56:34.591Z,5.60
2023-01-23T01:59:05.833Z,5.69
2023-01-23T02:01:34.809Z,5.70
2023-01-23T02:04:04.316Z,5.67
2023-01-23T02:06:32.409Z,5.45
2023-01-23T02:09:24.123Z,5.46
2023-01-23T02:11:52.339Z,5.56
2023-01-23T02:14:20.977Z,5.40
2023-01-23T02:16:50.544Z,5.47
2023-01-23T02:19:40.699Z,5.38
2023-01-23T02:22:38.451Z,5.11
2023-01-23T02:25:18.202Z,5.32
2023-01-23T02:27:46.354Z,5.24
2023-01-23T02:30:16.066Z,5.19
2023-01-23T02:32:44.055Z,5.22
2023-01-23T02:35:28.083Z,5.15
2023-01-23T02:38:03.236Z,5.12
2023-01-23T02:40:37.229Z,5.11
2023-01-23T02:43:07.547Z,5.10
2023-01-23T02:45:36.242Z,5.06
2023-01-23T02:48:06.161Z,4.90
2023-01-23T02:50:34.412Z,5.13
2023-01-23T02:53:02.772Z,4.86
2023-01-23T02:55:31.700Z,4.97
2023-01-23T02:58:20.551Z,4.97
2023-01-23T03:00:49.578Z,4.97
2023-01-23T03:03:17.313Z,4.98
2023-01-23T03:05:46.692Z,5.00
2023-01-23T03:08:14.828Z,5.00
2023-01-23T03:10:43.162Z,5.05
2023-01-23T03:13:12.144Z,4.89
2023-01-23T03:15:42.195Z,4.98
2023-01-23T03:18:09.962Z,5.07
2023-01-23T03:20:41.803Z,5.07
2023-01-23T03:23:09.796Z,4.99
2023-01-23T03:25:37.427Z,5.16
2023-01-23T03:28:25.439Z,4.93
2023-01-23T03:30:53.468Z,4.96
2023-01-23T03:33:21.200Z,5.20
2023-01-23T03:35:50.066Z,5.20
2023-01-23T03:38:19.370Z,5.18
2023-01-23T03:41:09.091Z,5.00
2023-01-23T03:43:37.139Z,5.10
2023-01-23T03:46:05.914Z,4.98
2023-01-23T03:48:33.821Z,4.95
2023-01-23T03:51:02.101Z,4.83
2023-01-23T03:53:31.845Z,5.08
2023-01-23T03:56:00.936Z,5.05
2023-01-23T03:58:30.843Z,4.96
2023-01-23T04:00:58.555Z,5.04
2023-01-23T04:03:27.977Z,5.08
2023-01-23T04:05:57.684Z,5.09
2023-01-23T04:08:25.880Z,5.15
2023-01-23T04:11:01.939Z,5.03
2023-01-23T04:13:29.765Z,5.10
2023-01-23T04:15:59.439Z,5.09
2023-01-23T04:18:28.210Z,4.97
2023-01-23T04:20:56.328Z,5.07
2023-01-23T04:23:25.939Z,4.99
2023-01-23T04:25:54.699Z,5.06
2023-01-23T04:28:22.909Z,5.05
2023-01-23T04:30:52.092Z,5.08
2023-01-23T04:33:21.013Z,5.03
2023-01-23T04:35:58.274Z,5.04
2023-01-23T04:38:29.050Z,5.09
2023-01-23T04:40:57.137Z,4.91
2023-01-23T04:43:25.407Z,4.93
2023-01-23T04:45:55.256Z,5.01
2023-01-23T04:48:25.906Z,5.01
2023-01-23T04:50:54.511Z,4.97
2023-01-23T04:53:22.266Z,5.00
2023-01-23T04:55:50.218Z,4.97
2023-01-23T04:58:19.961Z,5.10
2023-01-23T05:00:48.298Z,5.12
2023-01-23T05:03:17.483Z,4.97
2023-01-23T05:05:47.914Z,5.05
2023-01-23T05:08:15.727Z,5.10
2023-01-23T05:10:45.803Z,5.00
2023-01-23T05:13:14.543Z,4.90
2023-01-23T05:15:42.352Z,4.93
2023-01-23T05:18:10.667Z,4.94
2023-01-23T05:20:39.059Z,5.01
2023-01-23T05:23:06.739Z,4.84
2023-01-23T05:25:34.869Z,4.95
2023-01-23T05:28:02.845Z,4.94
2023-01-23T05:30:31.519Z,4.79
2023-01-23T05:33:00.713Z,4.88
2023-01-23T05:35:28.950Z,4.92
2023-01-23T05:37:56.765Z,4.86
2023-01-23T05:40:25.648Z,4.99
2023-01-23T05:42:54.826Z,4.90
2023-01-23T05:45:24.570Z,4.86
2023-01-23T05:47:55.339Z,4.88
2023-01-23T05:50:24.844Z,4.73
2023-01-23T05:52:53.906Z,4.76
2023-01-23T05:55:22.279Z,4.73
2023-01-23T05:57:51.030Z,4.70
2023-01-23T06:00:21.413Z,4.82
2023-01-23T06:02:50.281Z,4.70
2023-01-23T06:05:20.944Z,4.85
2023-01-23T06:07:51.880Z,4.88
2023-01-23T06:10:20.215Z,4.86
2023-01-23T06:12:47.996Z,4.62
2023-01-23T06:15:15.982Z,4.69
2023-01-23T06:17:44.625Z,4.57
2023-01-23T06:20:14.216Z,4.54
2023-01-23T06:22:42.576Z,4.59
2023-01-23T06:25:11.166Z,4.69
2023-01-23T06:27:38.992Z,4.80
2023-01-23T06:30:08.404Z,4.74
2023-01-23T06:32:41.079Z,4.77
2023-01-23T06:35:09.532Z,4.65
2023-01-23T06:37:37.709Z,4.74
2023-01-23T06:40:06.476Z,4.61
2023-01-23T06:42:35.577Z,4.82
2023-01-23T06:45:03.333Z,4.73
2023-01-23T06:47:31.609Z,4.81
2023-01-23T06:50:02.144Z,4.76
2023-01-23T06:52:31.082Z,4.94
2023-01-23T06:54:59.074Z,4.96
2023-01-23T06:57:27.663Z,4.69
2023-01-23T06:59:55.336Z,4.78
2023-01-23T07:02:23.428Z,4.76
2023-01-23T07:04:52.273Z,4.70
2023-01-23T07:07:20.874Z,4.86
2023-01-23T07:09:49.324Z,5.03
2023-01-23T07:12:17.010Z,4.63
2023-01-23T07:14:45.178Z,5.05
2023-01-23T07:17:13.421Z,5.17
2023-01-23T07:19:41.281Z,5.52
2023-01-23T07:22:09.853Z,5.50
2023-01-23T07:24:37.829Z,5.75
2023-01-23T07:27:05.461Z,5.87
2023-01-23T07:29:33.166Z,5.88
2023-01-23T07:32:01.277Z,5.99
2023-01-23T07:34:28.977Z,5.88
2023-01-23T07:36:56.585Z,6.13
2023-01-23T07:39:24.689Z,6.08
2023-01-23T07:41:52.424Z,6.29
2023-01-23T07:44:21.630Z,5.65
2023-01-23T07:46:50.151Z,5.72
2023-01-23T07:49:18.088Z,6.21
2023-01-23T07:51:45.708Z,6.34
2023-01-23T07:54:13.766Z,6.66
2023-01-23T07:56:41.438Z,6.71
2023-01-23T07:59:09.048Z,6.50
2023-01-23T08:01:38.067Z,6.65
2023-01-23T08:04:06.157Z,6.73
2023-01-23T08:06:34.540Z,6.50
2023-01-23T08:09:03.359Z,6.79
2023-01-23T08:11:34.152Z,6.91
2023-01-23T08:14:02.256Z,6.99
2023-01-23T08:16:29.952Z,6.95
2023-01-23T08:18:58.220Z,7.06
2023-01-23T08:21:25.819Z,7.25
2023-01-23T08:23:53.514Z,7.30
2023-01-23T08:26:24.259Z,7.37
2023-01-23T08:28:51.876Z,7.43
2023-01-23T08:31:19.898Z,7.43
2023-01-23T08:33:47.937Z,7.51
2023-01-23T08:36:15.591Z,7.57
2023-01-23T08:38:43.558Z,7.69
2023-01-23T08:41:14.663Z,7.80
2023-01-23T08:43:42.493Z,7.73
2023-01-23T08:46:11.301Z,7.86
2023-01-23T08:48:39.486Z,8.03
2023-01-23T08:51:10.262Z,8.11
2023-01-23T08:53:37.989Z,8.22
2023-01-23T08:56:17.838Z,8.22
2023-01-23T08:58:46.724Z,8.32
2023-01-23T09:01:17.929Z,8.42
2023-01-23T09:03:45.933Z,8.42
2023-01-23T09:06:16.765Z,8.50
2023-01-23T09:08:44.934Z,8.59
2023-01-23T09:11:14.369Z,8.53
2023-01-23T09:13:43.487Z,8.63
2023-01-23T09:16:11.238Z,8.84
2023-01-23T09:18:38.867Z,8.71
2023-01-23T09:21:10.315Z,8.81
2023-01-23T09:23:38.363Z,8.83
2023-01-23T09:26:11.357Z,8.90
2023-01-23T09:28:42.094Z,9.01
2023-01-23T09:31:13.105Z,8.99
2023-01-23T09:33:41.633Z,9.21
2023-01-23T09:36:10.090Z,9.24
2023-01-23T09:38:38.132Z,9.25
2023-01-23T09:41:19.161Z,9.33
2023-01-23T09:44:07.430Z,9.50
2023-01-23T09:46:46.866Z,9.60
2023-01-23T09:49:38.041Z,9.58
2023-01-23T09:52:12.131Z,9.44
2023-01-23T09:54:58.249Z,9.65
2023-01-23T09:57:33.479Z,9.47
2023-01-23T10:00:20.920Z,9.57
2023-01-23T10:02:49.038Z,9.32
2023-01-23T10:05:18.485Z,9.46
2023-01-23T10:08:17.694Z,9.30
2023-01-23T10:10:48.407Z,9.59
2023-01-23T10:13:19.970Z,9.34
2023-01-23T10:16:02.965Z,9.59
2023-01-23T10:18:40.935Z,9.75
2023-01-23T10:21:22.441Z,9.69
2023-01-23T10:24:21.889Z,9.62
2023-01-23T10:26:51.013Z,9.62
2023-01-23T10:29:28.764Z,9.57
2023-01-23T10:32:01.443Z,9.87
2023-01-23T10:34:37.141Z,10.01
2023-01-23T10:37:20.773Z,9.74
2023-01-23T10:40:03.986Z,10.08
2023-01-23T10:42:34.019Z,10.27
2023-01-23T10:45:01.973Z,10.50
2023-01-23T10:47:38.792Z,10.71
2023-01-23T10:50:11.643Z,10.65
2023-01-23T10:52:44.958Z,10.52
2023-01-23T10:55:19.781Z,10.66
2023-01-23T10:57:50.066Z,10.37
2023-01-23T11:00:24.887Z,10.48
2023-01-23T11:02:52.700Z,10.55
2023-01-23T11:05:51.883Z,10.33
2023-01-23T11:08:36.542Z,10.54
2023-01-23T11:11:16.889Z,10.62
2023-01-23T11:13:46.945Z,10.49
2023-01-23T11:16:17.040Z,10.57
2023-01-23T11:19:02.895Z,10.78
2023-01-23T11:21:51.986Z,10.65
2023-01-23T11:24:38.657Z,11.00
2023-01-23T11:27:28.350Z,10.82
2023-01-23T11:30:10.023Z,10.58
2023-01-23T11:32:51.297Z,10.32
2023-01-23T11:35:25.344Z,11.19
2023-01-23T11:37:55.535Z,11.05
2023-01-23T11:40:23.932Z,11.27
2023-01-23T11:42:52.718Z,11.08
2023-01-23T11:45:44.784Z,10.68
2023-01-23T11:48:32.917Z,10.85
2023-01-23T11:51:45.997Z,11.31
2023-01-23T11:54:41.501Z,11.21
2023-01-23T11:57:33.954Z,11.23
2023-01-23T12:00:19.055Z,11.18
2023-01-23T12:02:52.781Z,11.22
2023-01-23T12:05:26.231Z,11.26
2023-01-23T12:08:09.868Z,11.43
2023-01-23T12:11:13.899Z,11.30
2023-01-23T12:14:04.766Z,11.20
2023-01-23T12:17:09.162Z,10.96
2023-01-23T12:20:01.901Z,11.36
2023-01-23T12:22:48.577Z,11.23
2023-01-23T12:25:16.418Z,11.22
2023-01-23T12:27:47.072Z,11.21
2023-01-23T12:30:28.574Z,11.03
2023-01-23T12:33:35.044Z,11.35
2023-01-23T12:36:24.243Z,11.49
2023-01-23T12:39:01.497Z,11.43
2023-01-23T12:41:39.146Z,11.56
2023-01-23T12:44:24.807Z,11.65
2023-01-23T12:47:04.862Z,11.73
2023-01-23T12:49:45.987Z,11.74
2023-01-23T12:52:25.908Z,11.64
2023-01-23T12:55:04.647Z,11.24
2023-01-23T12:58:00.130Z,11.23
2023-01-23T13:00:44.868Z,11.31
2023-01-23T13:03:44.882Z,11.04
2023-01-23T13:06:41.086Z,11.32
2023-01-23T13:09:44.566Z,11.29
2023-01-23T13:12:31.148Z,11.10
2023-01-23T13:15:18.899Z,10.96
2023-01-23T13:18:22.753Z,10.65
2023-01-23T13:21:17.336Z,11.05
2023-01-23T13:23:45.969Z,11.05
2023-01-23T13:26:13.576Z,11.09
2023-01-23T13:28:48.705Z,10.62
2023-01-23T13:31:46.340Z,10.69
2023-01-23T13:34:16.979Z,10.90
2023-01-23T13:36:46.742Z,10.99
2023-01-23T13:39:17.401Z,10.89
2023-01-23T13:41:49.917Z,10.56
2023-01-23T13:44:41.515Z,10.81
2023-01-23T14:22:39.483Z,10.57
2023-01-23T14:25:17.237Z,10.20
2023-01-23T14:27:54.696Z,10.38
2023-01-23T14:30:27.124Z,10.36
2023-01-23T14:32:55.600Z,10.32
2023-01-23T14:35:31.445Z,10.19
2023-01-23T14:38:02.480Z,10.36
2023-01-23T14:40:39.996Z,10.02
2023-01-23T14:43:24.670Z,10.33
2023-01-23T14:46:12.468Z,10.23
2023-01-23T14:48:42.713Z,10.18
2023-01-23T14:51:24.078Z,9.76
2023-01-23T14:53:56.011Z,9.92
2023-01-23T14:56:39.368Z,10.22
2023-01-23T14:59:27.779Z,9.99
2023-01-23T15:02:03.311Z,9.90
2023-01-23T15:04:33.223Z,10.03
2023-01-23T15:07:02.617Z,9.91
2023-01-23T15:09:37.002Z,9.89
2023-01-23T15:12:07.577Z,9.84
2023-01-23T15:14:40.053Z,9.66
2023-01-23T15:17:17.476Z,9.82
2023-01-23T15:19:51.083Z,9.68
2023-01-23T15:22:25.253Z,9.69
2023-01-23T15:24:53.124Z,9.93
2023-01-23T15:27:37.322Z,9.56
2023-01-23T15:30:35.884Z,9.46
2023-01-23T15:33:10.325Z,9.41
2023-01-23T15:35:38.189Z,9.25
2023-01-23T15:38:08.626Z,9.19
2023-01-23T15:40:38.729Z,9.41
2023-01-23T15:43:17.668Z,8.84
2023-01-23T15:45:45.865Z,9.36
2023-01-23T15:48:13.758Z,8.99
2023-01-23T15:50:41.750Z,8.94
2023-01-23T15:53:12.610Z,8.96
2023-01-23T15:55:41.028Z,8.84
2023-01-23T15:58:15.305Z,8.72
2023-01-23T16:00:43.372Z,8.74
2023-01-23T16:03:14.576Z,8.68
2023-01-23T16:05:42.590Z,8.65
2023-01-23T16:08:25.360Z,8.52
2023-01-23T16:10:53.448Z,8.40
2023-01-23T16:13:21.112Z,8.53
2023-01-23T16:15:49.170Z,8.68
2023-01-23T16:18:20.205Z,8.43
2023-01-23T16:20:47.965Z,8.45
2023-01-23T16:23:20.097Z,8.36
2023-01-23T16:25:48.372Z,8.09
2023-01-23T16:28:19.865Z,8.10
2023-01-23T16:30:49.785Z,8.33
2023-01-23T16:33:17.981Z,8.27
2023-01-23T16:35:46.153Z,7.57
2023-01-23T16:38:26.530Z,7.74
2023-01-23T16:40:56.709Z,7.95
2023-01-23T16:43:24.632Z,7.78
2023-01-23T16:45:56.093Z,7.66
2023-01-23T16:48:27.477Z,7.82
2023-01-23T16:51:03.470Z,7.92
2023-01-23T16:53:34.846Z,7.77
2023-01-23T16:56:04.220Z,7.78
2023-01-23T16:58:37.831Z,7.73
2023-01-23T17:01:15.456Z,7.73
2023-01-23T17:03:44.921Z,7.63
2023-01-23T17:06:14.662Z,7.69
2023-01-23T17:08:42.838Z,7.15
2023-01-23T17:11:18.835Z,7.50
2023-01-23T17:13:47.554Z,7.35
2023-01-23T17:16:26.772Z,7.48
2023-01-23T17:18:58.992Z,7.47
2023-01-23T17:21:33.239Z,7.61
2023-01-23T17:24:01.085Z,7.38
2023-01-23T17:26:29.377Z,7.40
2023-01-23T17:29:00.533Z,7.48
2023-01-23T17:31:29.252Z,7.25
2023-01-23T17:33:57.337Z,7.39
2023-01-23T17:36:26.403Z,7.26
2023-01-23T17:38:59.127Z,7.48
2023-01-23T17:41:28.660Z,7.30
2023-01-23T17:43:56.482Z,6.95
2023-01-23T17:46:27.190Z,6.76
2023-01-23T17:48:56.198Z,6.98
2023-01-23T17:51:25.580Z,7.05
2023-01-23T17:53:53.537Z,7.15
2023-01-23T17:56:21.699Z,7.12
2023-01-23T17:58:49.649Z,7.02
2023-01-23T18:01:23.816Z,6.73
2023-01-23T18:03:53.246Z,6.98
2023-01-23T18:06:21.228Z,6.75
2023-01-23T18:08:49.224Z,6.71
2023-01-23T18:11:22.256Z,6.80
2023-01-23T18:13:50.099Z,6.69
2023-01-23T18:16:31.299Z,6.66
2023-01-23T18:19:03.747Z,6.62
2023-01-23T18:21:32.813Z,6.47
2023-01-23T18:24:00.785Z,6.48
2023-01-23T18:26:49.137Z,6.46
2023-01-23T18:29:17.568Z,6.46
2023-01-23T18:31:50.402Z,6.59
2023-01-23T18:34:31.169Z,6.46
2023-01-23T18:37:14.048Z,6.42
2023-01-23T18:39:49.252Z,6.41
2023-01-23T18:42:24.326Z,6.26
2023-01-23T18:45:01.793Z,6.08
2023-01-23T18:47:29.754Z,6.13
2023-01-23T18:49:58.399Z,6.08
2023-01-23T18:52:38.510Z,6.06
2023-01-23T18:55:28.582Z,6.04
2023-01-23T18:58:25.868Z,6.17
2023-01-23T19:01:15.020Z,6.02
2023-01-23T19:03:44.948Z,6.03
2023-01-23T19:06:23.363Z,6.02
2023-01-23T19:08:54.212Z,5.97
2023-01-23T19:11:46.452Z,5.76
2023-01-23T19:14:51.147Z,5.80
2023-01-23T19:17:39.708Z,5.67
2023-01-23T19:20:26.348Z,5.91
2023-01-23T19:23:09.745Z,5.88
2023-01-23T19:25:45.483Z,5.82
2023-01-23T19:28:15.147Z,5.83
2023-01-23T19:30:44.114Z,6.00
2023-01-23T19:33:17.014Z,6.07
2023-01-23T19:35:46.932Z,5.90
2023-01-23T19:38:17.605Z,5.65
2023-01-23T19:40:46.272Z,5.79
2023-01-23T19:43:16.846Z,5.78
2023-01-23T19:45:46.024Z,5.66
2023-01-23T19:48:14.113Z,5.72
2023-01-23T19:50:42.019Z,5.72
2023-01-23T19:53:13.353Z,5.81
2023-01-23T19:55:41.098Z,5.67
2023-01-23T19:58:10.248Z,5.78
2023-01-23T20:00:39.332Z,5.78
2023-01-23T20:03:10.075Z,5.78
2023-01-23T20:05:37.775Z,5.65
2023-01-23T20:08:06.348Z,5.65
2023-01-23T20:10:35.429Z,5.58
2023-01-23T20:13:03.474Z,5.46
2023-01-23T20:15:31.430Z,5.61
2023-01-23T20:17:59.598Z,5.64
2023-01-23T20:20:29.200Z,5.70
2023-01-23T20:22:56.829Z,5.58
2023-01-23T20:25:25.035Z,5.67
2023-01-23T20:27:52.856Z,5.81
2023-01-23T20:30:21.993Z,5.60
2023-01-23T20:32:50.680Z,5.60
2023-01-23T20:35:18.587Z,5.67
2023-01-23T20:37:46.292Z,5.74
2023-01-23T20:40:14.937Z,5.70
2023-01-23T20:42:42.676Z,5.70
2023-01-23T20:45:10.558Z,5.70
2023-01-23T20:47:40.896Z,5.31
2023-01-23T20:50:09.787Z,5.51
2023-01-23T20:52:56.735Z,5.52
2023-01-23T20:55:25.166Z,5.54
2023-01-23T20:58:12.008Z,5.60
2023-01-23T21:00:40.254Z,5.50
2023-01-23T21:03:07.967Z,5.62
2023-01-23T21:05:35.870Z,5.60
2023-01-23T21:08:04.258Z,5.51
2023-01-23T21:10:32.234Z,5.60
2023-01-23T21:13:00.067Z,5.69
2023-01-23T21:15:28.133Z,5.70
2023-01-23T21:17:55.784Z,5.64
2023-01-23T21:20:23.724Z,5.66
2023-01-23T21:22:51.925Z,5.77
2023-01-23T21:25:19.974Z,5.80
2023-01-23T21:27:48.097Z,5.62
2023-01-23T21:30:16.478Z,5.72
2023-01-23T21:32:44.741Z,5.73
2023-01-23T21:35:12.362Z,5.72
2023-01-23T21:37:42.417Z,5.67
2023-01-23T21:40:10.677Z,5.78
2023-01-23T21:42:38.500Z,5.76
2023-01-23T21:45:06.812Z,5.83
2023-01-23T21:47:34.379Z,5.63
2023-01-23T21:50:02.734Z,5.70
2023-01-23T21:52:31.106Z,5.63
2023-01-23T21:54:58.709Z,5.77
2023-01-23T21:57:26.315Z,5.69
2023-01-23T22:00:13.890Z,5.65
2023-01-23T22:02:41.938Z,5.78
2023-01-23T22:05:10.052Z,5.84
2023-01-23T22:07:37.804Z,5.76
2023-01-23T22:10:06.399Z,5.95
2023-01-23T22:12:36.764Z,5.71
2023-01-23T22:15:05.262Z,5.90
2023-01-23T22:17:34.133Z,5.85
2023-01-23T22:20:02.235Z,5.91
2023-01-23T22:22:29.862Z,5.93
2023-01-23T22:24:57.825Z,6.02
2023-01-23T22:27:25.552Z,5.98
2023-01-23T22:29:53.398Z,5.66
2023-01-23T22:32:21.658Z,5.79
2023-01-23T22:34:49.404Z,5.73
2023-01-23T22:37:21.445Z,5.77
2023-01-23T22:39:50.224Z,5.89
2023-01-23T22:42:19.198Z,5.76
2023-01-23T22:44:46.796Z,5.64
2023-01-23T22:47:14.814Z,5.53
2023-01-23T22:49:44.008Z,5.69
2023-01-23T22:52:11.552Z,5.64
2023-01-23T22:54:39.494Z,5.45
2023-01-23T22:57:07.219Z,5.73
2023-01-23T22:59:34.826Z,5.88
2023-01-23T23:02:02.856Z,5.56
2023-01-23T23:04:30.545Z,5.29
2023-01-23T23:06:58.231Z,5.53
2023-01-23T23:09:26.287Z,5.66
2023-01-23T23:11:54.279Z,5.55
2023-01-23T23:14:21.897Z,5.42
2023-01-23T23:16:49.928Z,5.70
2023-01-23T23:19:17.606Z,5.25
2023-01-23T23:21:45.596Z,5.36
2023-01-23T23:24:14.117Z,5.43
2023-01-23T23:26:42.056Z,5.39
2023-01-23T23:29:09.777Z,5.26
2023-01-23T23:31:37.939Z,5.55
2023-01-23T23:34:05.666Z,5.56
2023-01-23T23:36:33.707Z,5.36
2023-01-23T23:39:01.863Z,5.09
2023-01-23T23:41:29.585Z,5.02
2023-01-23T23:43:57.328Z,5.46
2023-01-23T23:46:25.466Z,5.61
2023-01-23T23:48:53.313Z,5.58
2023-01-23T23:51:22.892Z,5.52
2023-01-23T23:53:50.906Z,5.29
2023-01-23T23:56:29.039Z,5.47
2023-01-23T23:58:57.113Z,5.45
